Time;durP1;ratioP1;P1;durP2;ratioP2;P2;SDS_P1;SDS_P2;PMS_P1;PMS_P2;Temp;Humidity;BMP_temperature;BMP_pressure;BME280_temperature;BME280_humidity;BME280_pressure;Samples;Min_cycle;Max_cycle;Signal;HPM_P1;HPM_P2
2022/05/06 00:00:06;;;;;;;142.40;44.65;;;;;;;10.77;100.00;102546.94;5205662;28;20115;-69
2022/05/06 00:02:38;;;;;;;134.20;43.40;;;;;;;10.81;100.00;102548.41;5192755;28;20586;-69
2022/05/06 00:05:11;;;;;;;147.27;46.25;;;;;;;10.83;100.00;102546.44;5205400;28;20029;-70
2022/05/06 00:07:41;;;;;;;137.32;45.78;;;;;;;10.89;100.00;102550.44;5205688;28;20049;-70
2022/05/06 00:10:14;;;;;;;151.77;47.80;;;;;;;10.85;100.00;102543.66;5205615;28;20033;-70
2022/05/06 00:12:44;;;;;;;142.15;46.40;;;;;;;10.89;100.00;102545.06;5205449;28;20398;-69
2022/05/06 00:15:15;;;;;;;147.82;46.88;;;;;;;10.83;100.00;102548.28;5203444;28;20029;-70
2022/05/06 00:17:45;;;;;;;132.95;44.90;;;;;;;10.86;100.00;102545.34;5205628;28;20459;-70
2022/05/06 00:20:15;;;;;;;140.43;48.22;;;;;;;10.87;100.00;102549.72;5205588;28;20364;-69
2022/05/06 00:22:46;;;;;;;129.55;45.42;;;;;;;10.85;100.00;102549.88;5205509;28;20025;-69
2022/05/06 00:25:17;;;;;;;131.13;44.35;;;;;;;10.83;100.00;102550.97;5204764;28;20135;-69
2022/05/06 00:27:47;;;;;;;121.25;43.30;;;;;;;10.77;100.00;102551.47;5205286;28;20056;-70
2022/05/06 00:30:17;;;;;;;136.95;44.33;;;;;;;10.76;100.00;102556.00;5205519;28;20025;-69
2022/05/06 00:32:48;;;;;;;133.65;46.08;;;;;;;10.77;100.00;102552.31;5205024;28;20082;-69
2022/05/06 00:35:18;;;;;;;142.35;43.25;;;;;;;10.74;100.00;102546.34;5205202;28;20029;-70
2022/05/06 00:37:49;;;;;;;147.07;47.58;;;;;;;10.73;100.00;102550.88;5198772;28;20029;-70
2022/05/06 00:40:19;;;;;;;144.73;44.40;;;;;;;10.75;100.00;102548.91;5196154;28;20108;-70
2022/05/06 00:42:51;;;;;;;136.07;43.58;;;;;;;10.76;100.00;102544.41;5205017;28;20025;-70
2022/05/06 00:45:22;;;;;;;142.68;44.95;;;;;;;10.73;100.00;102544.63;5204910;28;20475;-70
2022/05/06 00:47:53;;;;;;;143.88;44.33;;;;;;;10.79;100.00;102544.13;5205423;28;20487;-69
2022/05/06 00:50:24;;;;;;;136.55;44.42;;;;;;;10.78;100.00;102540.59;5204032;28;20030;-70
2022/05/06 00:52:54;;;;;;;148.02;45.67;;;;;;;10.74;100.00;102544.50;5204407;28;20135;-71
2022/05/06 00:55:25;;;;;;;148.13;45.38;;;;;;;10.71;100.00;102546.63;5204736;28;20029;-70
2022/05/06 00:57:55;;;;;;;141.05;43.28;;;;;;;10.73;100.00;102548.19;5204918;28;20033;-70
2022/05/06 01:00:26;;;;;;;143.95;42.60;;;;;;;10.75;100.00;102545.38;5204822;28;20455;-70
2022/05/06 01:02:56;;;;;;;130.02;41.28;;;;;;;10.72;100.00;102549.16;5205095;28;20370;-70
2022/05/06 01:05:29;;;;;;;132.80;40.13;;;;;;;10.67;100.00;102553.19;5205110;28;20086;-70
2022/05/06 01:08:02;;;;;;;116.28;38.35;;;;;;;10.61;100.00;102552.72;5205299;28;20033;-70
2022/05/06 01:10:35;;;;;;;135.75;40.38;;;;;;;10.75;100.00;102558.81;5205241;28;20119;-69
2022/05/06 01:13:06;;;;;;;135.15;39.60;;;;;;;10.63;100.00;102553.44;5203834;28;20025;-69
2022/05/06 01:15:38;;;;;;;130.23;38.80;;;;;;;10.63;100.00;102548.06;5204708;28;20078;-69
2022/05/06 01:21:19;;;;;;;131.57;37.92;;;;;;;10.66;100.00;102549.66;5204398;28;20457;-69
2022/05/06 01:23:49;;;;;;;133.05;39.70;;;;;;;10.60;100.00;102551.03;5193010;28;20075;-69
2022/05/06 01:26:20;;;;;;;121.18;38.80;;;;;;;10.55;100.00;102544.34;5204744;28;20021;-69
2022/05/06 01:28:51;;;;;;;114.85;36.90;;;;;;;10.53;100.00;102546.28;5204558;28;20426;-70
2022/05/06 01:31:22;;;;;;;119.40;37.92;;;;;;;10.49;100.00;102543.00;5204295;28;20570;-69
2022/05/06 01:33:55;;;;;;;111.50;37.13;;;;;;;10.50;100.00;102547.38;5203949;28;20029;-69
2022/05/06 01:36:27;;;;;;;128.73;37.28;;;;;;;10.55;100.00;102550.56;5204086;28;20025;-69
2022/05/06 01:39:01;;;;;;;105.60;34.15;;;;;;;10.54;100.00;102553.34;5189919;28;20057;-69
2022/05/06 01:41:35;;;;;;;112.57;36.20;;;;;;;10.50;100.00;102554.59;5204291;28;20386;-69
2022/05/06 01:44:09;;;;;;;102.80;34.83;;;;;;;10.47;100.00;102549.47;5204298;28;20029;-69
2022/05/06 01:46:40;;;;;;;122.32;36.08;;;;;;;10.44;100.00;102550.56;5203976;28;20037;-70
2022/05/06 01:49:14;;;;;;;118.35;35.53;;;;;;;10.41;100.00;102549.97;5203819;28;20376;-70
2022/05/06 01:51:46;;;;;;;112.43;34.90;;;;;;;10.41;100.00;102550.81;5204269;28;20032;-70
2022/05/06 01:54:22;;;;;;;124.25;36.47;;;;;;;10.46;100.00;102551.28;5203996;28;20541;-69
2022/05/06 01:56:53;;;;;;;121.07;35.30;;;;;;;10.41;100.00;102549.97;5202488;28;20026;-70
2022/05/06 01:59:23;;;;;;;131.07;38.53;;;;;;;10.41;100.00;102548.13;5204135;28;20028;-69
2022/05/06 02:01:55;;;;;;;120.43;35.72;;;;;;;10.44;100.00;102547.88;5203599;28;20048;-68
2022/05/06 02:07:20;;;;;;;127.35;35.10;;;;;;;10.62;100.00;102556.25;5203289;28;20695;-69
2022/05/06 02:09:51;;;;;;;110.25;34.58;;;;;;;10.63;100.00;102556.13;5203768;28;20030;-69
2022/05/06 02:12:22;;;;;;;105.45;33.03;;;;;;;10.71;100.00;102558.19;5202868;28;20493;-69
2022/05/06 02:14:52;;;;;;;95.72;32.25;;;;;;;10.65;100.00;102547.13;5203393;28;20101;-69
2022/05/06 02:17:23;;;;;;;116.07;36.63;;;;;;;10.52;100.00;102548.09;5203922;28;20053;-69
2022/05/06 02:19:54;;;;;;;110.70;34.30;;;;;;;10.45;100.00;102548.75;5203153;28;20029;-69
2022/05/06 02:22:27;;;;;;;115.65;33.85;;;;;;;10.40;100.00;102556.31;5203866;28;20224;-69
2022/05/06 02:24:58;;;;;;;119.65;35.22;;;;;;;10.43;100.00;102554.22;5203620;28;20440;-69
2022/05/06 02:27:28;;;;;;;125.15;38.47;;;;;;;10.41;100.00;102550.81;5203906;28;20117;-69
2022/05/06 02:35:37;;;;;;;133.82;38.42;;;;;;;10.41;100.00;102552.66;5203575;28;20029;-69
2022/05/06 02:38:09;;;;;;;155.02;39.50;;;;;;;10.42;100.00;102557.88;5190244;28;20024;-70
2022/05/06 02:40:40;;;;;;;121.43;37.28;;;;;;;10.45;100.00;102554.09;5203170;28;20033;-69
2022/05/06 02:43:11;;;;;;;147.55;35.85;;;;;;;10.44;100.00;102550.56;5204097;28;20475;-70
2022/05/06 02:45:42;;;;;;;126.55;37.20;;;;;;;10.43;100.00;102554.22;5203857;28;20037;-69
2022/05/06 02:48:12;;;;;;;138.10;36.08;;;;;;;10.50;100.00;102551.91;5202791;28;20112;-70
2022/05/06 02:50:43;;;;;;;121.95;37.40;;;;;;;10.53;100.00;102557.84;5203177;28;20108;-70
2022/05/06 02:53:13;;;;;;;106.18;32.80;;;;;;;10.51;100.00;102557.13;5203347;28;20033;-71
2022/05/06 02:55:44;;;;;;;115.72;35.58;;;;;;;10.45;100.00;102556.78;5203463;28;20026;-70
2022/05/06 02:58:14;;;;;;;119.55;36.45;;;;;;;10.38;100.00;102551.91;5203500;28;20022;-70
2022/05/06 03:00:45;;;;;;;124.90;37.53;;;;;;;10.43;100.00;102559.56;5203424;28;20114;-70
2022/05/06 03:03:15;;;;;;;129.95;39.55;;;;;;;10.51;100.00;102558.97;5203998;28;20028;-70
2022/05/06 03:05:46;;;;;;;140.40;39.22;;;;;;;10.49;100.00;102555.53;5189689;28;20032;-71
2022/05/06 03:08:16;;;;;;;126.22;38.22;;;;;;;10.47;100.00;102547.63;5203315;28;20021;-70
2022/05/06 03:10:47;;;;;;;128.60;38.05;;;;;;;10.47;100.00;102555.69;5203239;28;20100;-69
2022/05/06 03:13:17;;;;;;;137.38;39.85;;;;;;;10.47;100.00;102557.50;5203755;28;20463;-70
2022/05/06 03:15:48;;;;;;;141.95;40.13;;;;;;;10.39;100.00;102552.75;5205986;28;20517;-69
2022/05/06 03:18:18;;;;;;;133.23;39.33;;;;;;;10.35;100.00;102556.69;5205767;28;20411;-70
2022/05/06 03:20:49;;;;;;;150.73;40.55;;;;;;;10.36;100.00;102553.00;5206833;28;20064;-70
2022/05/06 03:23:20;;;;;;;149.68;41.08;;;;;;;10.42;100.00;102557.88;5207047;28;20494;-70
2022/05/06 03:25:50;;;;;;;152.68;39.33;;;;;;;10.43;100.00;102556.91;5206812;28;20026;-70
2022/05/06 03:28:20;;;;;;;153.35;41.25;;;;;;;10.47;100.00;102555.69;5205713;28;20043;-69
2022/05/06 03:30:52;;;;;;;156.32;42.78;;;;;;;10.51;100.00;102558.97;5206721;28;20057;-69
2022/05/06 03:33:22;;;;;;;157.77;41.60;;;;;;;10.57;100.00;102563.84;5206796;28;20021;-70
2022/05/06 03:35:53;;;;;;;152.82;42.03;;;;;;;10.58;100.00;102560.16;5206642;28;20059;-70
2022/05/06 03:38:23;;;;;;;154.63;42.90;;;;;;;10.56;100.00;102562.97;5197326;28;20018;-70
2022/05/06 03:40:55;;;;;;;147.45;40.95;;;;;;;10.68;100.00;102562.97;5201829;28;20026;-70
2022/05/06 03:43:27;;;;;;;156.80;43.90;;;;;;;10.63;100.00;102558.81;5206875;28;20463;-70
2022/05/06 03:45:57;;;;;;;153.57;42.83;;;;;;;10.60;100.00;102556.41;5206606;28;20103;-70
2022/05/06 03:48:28;;;;;;;147.57;42.83;;;;;;;10.58;100.00;102565.53;5206747;28;20017;-71
2022/05/06 03:54:03;;;;;;;155.75;47.20;;;;;;;10.61;100.00;102557.25;5206527;28;20056;-70
2022/05/06 03:56:33;;;;;;;141.90;40.92;;;;;;;10.70;100.00;102566.38;5206292;28;20479;-71
2022/05/06 03:59:04;;;;;;;148.73;40.03;;;;;;;10.67;100.00;102556.75;5206381;28;20041;-69
2022/05/06 04:01:35;;;;;;;145.52;42.75;;;;;;;10.65;100.00;102564.06;5206355;28;20025;-70
2022/05/06 04:04:06;;;;;;;139.57;40.13;;;;;;;10.72;100.00;102564.41;5205940;28;20671;-70
2022/05/06 04:06:37;;;;;;;143.88;43.80;;;;;;;10.70;100.00;102563.69;5206062;28;20053;-70
2022/05/06 04:09:07;;;;;;;149.82;42.15;;;;;;;10.74;100.00;102565.97;5206149;28;20160;-71
2022/05/06 04:11:38;;;;;;;155.93;43.28;;;;;;;10.73;100.00;102569.66;5204933;28;20022;-71
2022/05/06 04:14:10;;;;;;;146.82;42.55;;;;;;;10.74;100.00;102571.34;5205617;28;20435;-71
2022/05/06 04:16:41;;;;;;;144.30;42.97;;;;;;;10.73;100.00;102566.13;5206009;28;20505;-70
2022/05/06 04:19:12;;;;;;;146.35;44.45;;;;;;;10.81;100.00;102566.34;5206293;28;20017;-70
2022/05/06 04:24:31;;;;;;;127.53;38.63;;;;;;;10.79;100.00;102568.28;5205802;28;20386;-70
2022/05/06 04:27:02;;;;;;;146.90;42.35;;;;;;;10.77;100.00;102576.47;5205475;28;20033;-70
2022/05/06 04:29:32;;;;;;;149.50;45.70;;;;;;;10.91;100.00;102577.19;5205971;28;20413;-71
2022/05/06 04:32:03;;;;;;;132.18;38.38;;;;;;;10.92;100.00;102574.38;5205848;28;20025;-70
2022/05/06 04:34:33;;;;;;;140.70;41.47;;;;;;;10.92;100.00;102571.69;5205420;28;20033;-70
2022/05/06 04:37:05;;;;;;;143.45;42.83;;;;;;;10.88;100.00;102579.13;5205600;28;20021;-70
2022/05/06 04:39:36;;;;;;;138.13;40.22;;;;;;;10.86;100.00;102577.56;5204465;28;20123;-70
2022/05/06 04:42:06;;;;;;;141.73;40.50;;;;;;;10.91;100.00;102580.72;5205774;28;20109;-70
2022/05/06 04:44:37;;;;;;;131.18;40.15;;;;;;;10.87;100.00;102580.13;5205158;28;20021;-69
2022/05/06 04:47:07;;;;;;;135.32;41.00;;;;;;;10.81;100.00;102575.25;5205411;28;20420;-69
2022/05/06 04:49:38;;;;;;;154.70;44.42;;;;;;;10.79;100.00;102579.91;5205129;28;20095;-70
2022/05/06 04:52:08;;;;;;;148.40;43.10;;;;;;;10.84;100.00;102579.50;5205284;28;20027;-69
2022/05/06 04:54:39;;;;;;;147.77;43.85;;;;;;;10.85;100.00;102574.03;5205321;28;20037;-70
2022/05/06 04:57:09;;;;;;;148.70;44.58;;;;;;;10.88;100.00;102584.50;5205173;28;20055;-70
2022/05/06 04:59:41;;;;;;;140.93;40.78;;;;;;;10.90;100.00;102595.13;5205244;28;20099;-70
2022/05/06 05:02:11;;;;;;;151.90;45.08;;;;;;;10.81;100.00;102598.56;5204896;28;20083;-70
2022/05/06 05:04:43;;;;;;;156.25;43.80;;;;;;;10.82;100.00;102589.53;5205090;28;20025;-70
2022/05/06 05:07:14;;;;;;;154.18;44.78;;;;;;;10.85;100.00;102586.59;5205094;28;20041;-70
2022/05/06 05:09:44;;;;;;;137.40;40.80;;;;;;;10.91;100.00;102586.09;5205523;28;20065;-70
2022/05/06 05:12:15;;;;;;;154.55;42.28;;;;;;;10.97;100.00;102590.97;5204943;28;20450;-69
2022/05/06 05:14:45;;;;;;;147.60;41.30;;;;;;;11.04;100.00;102602.88;5204252;28;20017;-70
2022/05/06 05:17:16;;;;;;;139.07;43.70;;;;;;;11.08;100.00;102607.03;5205125;28;20108;-70
2022/05/06 05:19:46;;;;;;;139.77;41.72;;;;;;;11.11;100.00;102603.25;5204604;28;20032;-71
2022/05/06 05:22:18;;;;;;;132.02;40.15;;;;;;;11.09;100.00;102616.81;5204731;28;20029;-70
2022/05/06 05:24:49;;;;;;;139.43;42.83;;;;;;;11.12;100.00;102610.31;5204715;28;20040;-70
2022/05/06 05:27:20;;;;;;;141.32;42.53;;;;;;;11.14;100.00;102614.59;5205692;28;20033;-70
2022/05/06 05:29:50;;;;;;;131.55;39.30;;;;;;;11.12;100.00;102607.63;5205079;28;20033;-70
2022/05/06 05:32:21;;;;;;;137.30;41.92;;;;;;;11.00;100.00;102606.84;5204495;28;20411;-69
2022/05/06 05:34:52;;;;;;;139.63;40.63;;;;;;;10.95;100.00;102618.94;5204443;28;20032;-70
2022/05/06 05:37:22;;;;;;;145.55;40.72;;;;;;;11.10;100.00;102613.16;5201993;28;20029;-70
2022/05/06 05:39:54;;;;;;;143.98;41.35;;;;;;;11.11;100.00;102609.47;5191336;28;20084;-71
2022/05/06 05:50:49;;;;;;;153.10;41.75;;;;;;;11.55;100.00;102607.59;5204057;28;20079;-69
2022/05/06 05:53:21;;;;;;;157.40;42.22;;;;;;;11.62;100.00;102613.28;5204193;28;20033;-69
2022/05/06 05:55:51;;;;;;;154.55;42.60;;;;;;;11.51;100.00;102614.22;5203989;28;20100;-69
2022/05/06 05:58:23;;;;;;;158.85;43.58;;;;;;;11.41;100.00;102611.44;5203773;28;20120;-69
2022/05/06 06:00:54;;;;;;;160.73;42.72;;;;;;;11.50;100.00;102615.19;5204269;28;20087;-69
2022/05/06 06:03:24;;;;;;;152.02;41.70;;;;;;;11.56;100.00;102616.50;5204025;28;20033;-69
2022/05/06 06:05:54;;;;;;;154.88;40.75;;;;;;;11.50;100.00;102612.50;5204054;28;20063;-70
2022/05/06 06:08:25;;;;;;;142.77;40.88;;;;;;;11.65;100.00;102619.28;5203242;28;20402;-69
2022/05/06 06:10:55;;;;;;;133.85;39.15;;;;;;;11.67;100.00;102614.59;5203551;28;20021;-69
2022/05/06 06:13:26;;;;;;;126.07;37.88;;;;;;;11.84;100.00;102612.34;5203769;28;20041;-69
2022/05/06 06:15:57;;;;;;;128.57;38.55;;;;;;;11.72;100.00;102613.38;5203500;28;20026;-69
2022/05/06 06:18:28;;;;;;;142.65;38.63;;;;;;;11.70;100.00;102610.81;5203776;28;20096;-69
2022/05/06 06:20:58;;;;;;;152.88;40.92;;;;;;;11.68;100.00;102610.09;5203527;28;20393;-69
2022/05/06 06:23:30;;;;;;;149.48;40.00;;;;;;;11.53;100.00;102606.00;5203376;28;20556;-69
2022/05/06 06:26:01;;;;;;;154.80;40.28;;;;;;;11.55;100.00;102610.28;5203446;28;20026;-69
2022/05/06 06:28:31;;;;;;;151.85;40.25;;;;;;;11.64;100.00;102605.94;5203629;28;20083;-69
2022/05/06 06:31:02;;;;;;;160.30;39.83;;;;;;;11.56;100.00;102603.06;5203604;28;20034;-69
2022/05/06 06:33:37;;;;;;;135.65;37.75;;;;;;;11.49;100.00;102618.84;5203645;28;20018;-69
2022/05/06 06:36:08;;;;;;;124.68;35.40;;;;;;;11.66;100.00;102618.28;5203111;28;20072;-69
2022/05/06 06:38:39;;;;;;;135.55;38.95;;;;;;;11.74;100.00;102630.22;5202753;28;20443;-70
2022/05/06 06:41:09;;;;;;;139.85;39.05;;;;;;;11.90;100.00;102622.59;5203540;28;20397;-70
2022/05/06 06:43:40;;;;;;;152.02;39.75;;;;;;;11.94;100.00;102632.09;5203678;28;20489;-70
2022/05/06 06:46:10;;;;;;;147.00;38.85;;;;;;;12.14;100.00;102620.44;5203338;28;20451;-69
2022/05/06 06:48:41;;;;;;;131.80;38.67;;;;;;;12.13;100.00;102624.13;5203322;28;20485;-70
2022/05/06 06:51:12;;;;;;;144.20;38.45;;;;;;;12.10;100.00;102640.56;5207348;28;20552;-69
2022/05/06 06:53:42;;;;;;;133.38;37.20;;;;;;;12.01;100.00;102635.13;5207646;28;20060;-69
2022/05/06 06:56:12;;;;;;;145.23;41.35;;;;;;;11.97;100.00;102641.75;5207272;28;20103;-69
2022/05/06 06:58:43;;;;;;;138.75;39.10;;;;;;;11.71;100.00;102635.88;5207305;28;20025;-69
2022/05/06 07:01:13;;;;;;;136.40;35.58;;;;;;;11.78;100.00;102642.41;5207184;28;20033;-69
2022/05/06 07:03:44;;;;;;;154.30;39.33;;;;;;;11.91;100.00;102645.81;5207575;28;20099;-69
2022/05/06 07:11:53;;;;;;;117.07;32.47;;;;;;;12.39;100.00;102650.59;5207454;28;20550;-69
2022/05/06 07:14:25;;;;;;;113.80;32.83;;;;;;;12.41;100.00;102651.34;5205053;28;20463;-69
2022/05/06 07:16:56;;;;;;;117.03;34.95;;;;;;;12.52;100.00;102662.00;5207177;28;20432;-69
2022/05/06 07:19:26;;;;;;;132.15;37.40;;;;;;;12.51;100.00;102662.16;5207388;28;20487;-69
2022/05/06 07:21:57;;;;;;;137.98;38.13;;;;;;;12.49;100.00;102653.34;5206427;28;20030;-69
2022/05/06 07:24:27;;;;;;;139.90;39.25;;;;;;;12.38;100.00;102659.66;5206917;28;20068;-69
2022/05/06 07:26:58;;;;;;;144.43;39.90;;;;;;;12.40;100.00;102660.41;5206628;28;20033;-69
2022/05/06 07:29:28;;;;;;;147.82;41.17;;;;;;;12.41;100.00;102668.34;5206969;28;20026;-70
2022/05/06 07:31:59;;;;;;;152.13;39.60;;;;;;;12.44;100.00;102670.75;5206797;28;20025;-70
2022/05/06 07:34:29;;;;;;;153.88;42.78;;;;;;;12.28;100.00;102672.22;5206002;28;20075;-69
2022/05/06 07:37:01;;;;;;;147.93;41.40;;;;;;;12.35;100.00;102668.00;5205760;28;20023;-69
2022/05/06 07:39:31;;;;;;;147.90;41.75;;;;;;;12.35;100.00;102671.56;5205716;28;20037;-70
2022/05/06 07:42:02;;;;;;;153.57;41.80;;;;;;;12.38;100.00;102676.66;5206630;28;20083;-70
2022/05/06 07:44:32;;;;;;;139.85;40.85;;;;;;;12.49;100.00;102677.56;5205057;28;20101;-69
2022/05/06 07:47:03;;;;;;;155.55;42.65;;;;;;;12.63;100.00;102677.22;5206327;28;20053;-69
2022/05/06 07:49:34;;;;;;;144.77;40.25;;;;;;;12.50;100.00;102674.75;5206710;28;20017;-70
2022/05/06 07:52:04;;;;;;;139.05;40.53;;;;;;;12.62;100.00;102673.66;5206412;28;20032;-69
2022/05/06 07:54:35;;;;;;;131.88;38.67;;;;;;;12.80;100.00;102681.09;5206263;28;20029;-69
2022/05/06 07:57:05;;;;;;;116.53;38.50;;;;;;;12.87;100.00;102682.28;5206624;28;20053;-70
2022/05/06 07:59:36;;;;;;;131.80;39.17;;;;;;;13.06;100.00;102670.72;5206112;28;20471;-70
2022/05/06 08:04:56;;;;;;;135.43;38.30;;;;;;;13.13;100.00;102675.38;5206159;28;20419;-70
2022/05/06 08:07:26;;;;;;;130.63;39.88;;;;;;;13.19;100.00;102676.66;5206277;28;20021;-70
2022/05/06 08:09:57;;;;;;;145.90;41.72;;;;;;;13.21;100.00;102685.50;5205688;28;20378;-70
2022/05/06 08:12:27;;;;;;;128.65;40.40;;;;;;;13.17;100.00;102686.75;5206310;28;20124;-69
2022/05/06 08:14:57;;;;;;;146.75;42.53;;;;;;;13.21;100.00;102680.97;5205568;28;20112;-69
2022/05/06 08:17:28;;;;;;;141.48;42.70;;;;;;;12.99;100.00;102681.16;5206020;28;20061;-70
2022/05/06 08:19:59;;;;;;;160.70;45.78;;;;;;;12.99;100.00;102678.47;5205745;28;20028;-70
2022/05/06 08:22:30;;;;;;;154.13;45.40;;;;;;;13.15;100.00;102673.44;5205520;28;20029;-70
2022/05/06 08:25:02;;;;;;;167.90;47.15;;;;;;;13.26;100.00;102671.63;5205489;28;20029;-70
2022/05/06 08:27:50;;;;;;;179.65;48.17;;;;;;;13.11;100.00;102669.31;5205739;28;20034;-70
2022/05/06 08:30:20;;;;;;;149.07;43.63;;;;;;;13.49;100.00;102670.34;5205797;28;20087;-70
2022/05/06 08:32:51;;;;;;;153.38;44.38;;;;;;;13.62;100.00;102676.34;5204954;28;20108;-70
2022/05/06 08:35:22;;;;;;;162.90;47.85;;;;;;;13.70;100.00;102667.50;5205835;28;20459;-70
2022/05/06 08:37:53;;;;;;;169.52;46.50;;;;;;;13.65;100.00;102670.63;5200141;28;20063;-70
2022/05/06 08:40:26;;;;;;;174.88;48.13;;;;;;;13.85;100.00;102662.53;5196941;28;20026;-70
2022/05/06 08:42:57;;;;;;;142.65;44.72;;;;;;;14.06;100.00;102660.53;5205174;28;20072;-70
2022/05/06 08:51:06;;;;;;;140.50;44.78;;;;;;;14.72;100.00;102649.69;5205184;28;20116;-70
2022/05/06 08:53:39;;;;;;;140.43;45.30;;;;;;;14.81;100.00;102658.75;5205033;28;20433;-70
2022/05/06 08:56:09;;;;;;;140.80;46.00;;;;;;;14.95;100.00;102654.66;5205169;28;20025;-70
2022/05/06 08:58:41;;;;;;;151.25;47.85;;;;;;;14.86;100.00;102656.44;5205087;28;20470;-70
2022/05/06 09:01:13;;;;;;;138.73;44.63;;;;;;;14.87;100.00;102651.88;5205279;28;20037;-70
2022/05/06 09:03:47;;;;;;;137.88;45.17;;;;;;;14.94;100.00;102650.28;5205088;28;20021;-70
2022/05/06 09:06:19;;;;;;;140.77;49.03;;;;;;;15.02;100.00;102650.38;5204738;28;20061;-70
2022/05/06 09:08:52;;;;;;;131.13;44.40;;;;;;;15.33;100.00;102647.31;5204816;28;20025;-70
2022/05/06 09:14:16;;;;;;;149.35;48.17;;;;;;;15.22;100.00;102643.84;5204208;28;20029;-70
2022/05/06 09:16:47;;;;;;;139.23;46.20;;;;;;;15.59;100.00;102650.94;5204716;28;20021;-70
2022/05/06 09:19:21;;;;;;;135.45;43.97;;;;;;;15.66;100.00;102648.47;5204856;28;20031;-70
2022/05/06 09:22:13;;;;;;;129.15;45.00;;;;;;;15.86;100.00;102641.88;5204264;28;20017;-70
2022/05/06 09:27:35;;;;;;;144.05;47.45;;;;;;;15.04;100.00;102645.66;5204549;28;20033;-70
2022/05/06 09:30:08;;;;;;;134.73;43.60;;;;;;;14.62;100.00;102643.47;5204566;28;20025;-70
2022/05/06 09:32:39;;;;;;;141.70;44.53;;;;;;;15.12;100.00;102642.22;5204356;28;20483;-70
2022/05/06 09:35:12;;;;;;;124.50;42.03;;;;;;;15.16;100.00;102644.47;5203912;28;20040;-70
2022/05/06 09:38:03;;;;;;;131.30;43.42;;;;;;;15.38;100.00;102645.84;5200192;28;20033;-71
2022/05/06 09:40:33;;;;;;;125.20;42.30;;;;;;;15.66;100.00;102641.25;5197607;28;20116;-70
2022/05/06 09:43:04;;;;;;;123.43;43.17;;;;;;;15.25;100.00;102648.91;5191344;28;20153;-71
2022/05/06 09:45:38;;;;;;;129.27;43.90;;;;;;;15.96;100.00;102644.50;5200431;28;20035;-71
2022/05/06 09:48:11;;;;;;;137.20;44.22;;;;;;;16.15;100.00;102646.16;5202095;28;20048;-71
2022/05/06 09:50:45;;;;;;;123.28;42.95;;;;;;;17.33;100.00;102643.47;5201872;28;20029;-71
2022/05/06 09:53:17;;;;;;;118.75;42.35;;;;;;;17.87;100.00;102642.97;5202027;28;20385;-71
2022/05/06 09:55:48;;;;;;;114.55;41.70;;;;;;;18.07;100.00;102638.03;5201760;28;20075;-71
2022/05/06 09:58:18;;;;;;;107.82;40.42;;;;;;;17.77;100.00;102635.03;5200964;28;20247;-71
2022/05/06 10:00:49;;;;;;;103.25;38.15;;;;;;;18.58;100.00;102634.00;5201660;28;20475;-71
2022/05/06 10:03:19;;;;;;;96.22;36.28;;;;;;;18.74;100.00;102630.41;5201755;28;20108;-71
2022/05/06 10:05:51;;;;;;;110.07;41.40;;;;;;;19.05;100.00;102629.56;5201584;28;20033;-71
2022/05/06 10:08:23;;;;;;;96.30;38.83;;;;;;;18.50;100.00;102627.75;5200828;28;20036;-71
2022/05/06 10:11:12;;;;;;;102.72;38.60;;;;;;;18.83;100.00;102626.63;5201480;28;20025;-71
2022/05/06 10:13:46;;;;;;;82.78;33.90;;;;;;;18.64;100.00;102632.44;5201608;28;20116;-71
2022/05/06 10:16:16;;;;;;;84.50;32.90;;;;;;;17.74;100.00;102638.09;5201361;28;20025;-71
2022/05/06 10:18:47;;;;;;;98.05;36.33;;;;;;;18.03;100.00;102625.84;5201444;28;20108;-71
2022/05/06 10:21:17;;;;;;;93.03;35.42;;;;;;;18.46;100.00;102631.84;5200642;28;20071;-71
2022/05/06 10:23:52;;;;;;;90.25;35.72;;;;;;;18.76;100.00;102624.78;5201552;28;20017;-71
2022/05/06 10:26:44;;;;;;;97.40;35.55;;;;;;;18.02;100.00;102625.00;5201536;28;20251;-71
2022/05/06 10:32:55;;;;;;;89.47;34.30;;;;;;;19.06;100.00;102614.91;5201509;28;20040;-71
2022/05/06 10:35:37;;;;;;;80.05;29.92;;;;;;;19.34;100.00;102616.09;5201305;28;20541;-71
2022/05/06 10:38:26;;;;;;;69.13;28.40;;;;;;;19.44;100.00;102607.69;5201196;28;20265;-71
2022/05/06 10:40:58;;;;;;;66.55;27.00;;;;;;;19.26;100.00;102610.69;5201357;28;20043;-71
2022/05/06 10:43:40;;;;;;;65.05;27.70;;;;;;;19.21;100.00;102609.56;5201675;28;20429;-72
2022/05/06 10:46:11;;;;;;;72.30;28.73;;;;;;;19.32;100.00;102600.97;5200509;28;20152;-71
2022/05/06 10:48:41;;;;;;;71.53;27.35;;;;;;;19.28;100.00;102584.19;5201139;28;20216;-71
2022/05/06 10:51:29;;;;;;;65.43;27.40;;;;;;;19.15;100.00;102597.53;5200938;28;20037;-71
2022/05/06 10:54:00;;;;;;;69.38;28.75;;;;;;;18.64;100.00;102591.69;5200888;28;20032;-71
2022/05/06 10:56:31;;;;;;;50.92;21.42;;;;;;;18.62;100.00;102597.31;5199754;28;20712;-71
2022/05/06 10:59:01;;;;;;;57.05;24.08;;;;;;;18.67;100.00;102594.03;5200651;28;20513;-71
2022/05/06 11:01:32;;;;;;;70.53;24.92;;;;;;;19.17;100.00;102595.47;5200656;28;20033;-72
2022/05/06 11:04:03;;;;;;;61.05;22.92;;;;;;;19.82;100.00;102588.66;5199688;28;20628;-71
2022/05/06 11:06:33;;;;;;;64.50;25.35;;;;;;;19.56;100.00;102589.88;5199984;28;20112;-71
2022/05/06 11:09:04;;;;;;;68.68;24.75;;;;;;;19.03;100.00;102579.94;5187001;28;20040;-70
2022/05/06 11:11:34;;;;;;;57.83;24.13;;;;;;;19.45;100.00;102586.75;5200269;28;20125;-70
2022/05/06 11:14:23;;;;;;;63.67;25.17;;;;;;;19.82;100.00;102573.16;5200324;28;20448;-70
2022/05/06 11:17:14;;;;;;;59.78;24.23;;;;;;;20.00;100.00;102577.41;5200127;28;20029;-71
2022/05/06 11:19:44;;;;;;;55.22;22.83;;;;;;;20.44;100.00;102564.63;5200620;28;20041;-70
2022/05/06 11:22:15;;;;;;;55.35;22.90;;;;;;;20.37;100.00;102568.28;5200325;28;20093;-70
2022/05/06 11:24:46;;;;;;;46.55;19.95;;;;;;;21.01;100.00;102575.81;5200294;28;20022;-71
2022/05/06 11:27:18;;;;;;;40.75;17.58;;;;;;;20.50;100.00;102564.94;5200078;28;20100;-70
2022/05/06 11:29:55;;;;;;;43.08;16.98;;;;;;;20.84;100.00;102558.84;5199610;28;20132;-71
2022/05/06 11:32:27;;;;;;;45.90;19.27;;;;;;;21.28;100.00;102564.09;5200374;28;20060;-70
2022/05/06 11:34:59;;;;;;;45.95;19.05;;;;;;;20.75;100.00;102551.81;5199942;28;20518;-71
2022/05/06 11:37:33;;;;;;;43.15;18.88;;;;;;;20.81;100.00;102557.31;5202314;28;20057;-70
2022/05/06 11:40:35;;;;;;;41.03;17.80;;;;;;;20.82;100.00;102556.28;5192373;28;20026;-71
2022/05/06 11:43:17;;;;;;;40.25;17.75;;;;;;;20.64;100.00;102544.97;5203770;28;20033;-71
2022/05/06 11:48:42;;;;;;;40.05;18.52;;;;;;;21.24;100.00;102545.59;5203478;28;20920;-70
2022/05/06 11:51:50;;;;;;;37.22;15.75;;;;;;;21.76;100.00;102542.47;5190323;28;20036;-71
2022/05/06 11:54:21;;;;;;;33.83;14.25;;;;;;;21.74;100.00;102544.56;5202934;28;20116;-71
2022/05/06 11:56:52;;;;;;;36.10;15.27;;;;;;;22.25;90.26;102535.25;5202508;28;20212;-71
2022/05/06 11:59:23;;;;;;;31.15;15.23;;;;;;;22.48;84.97;102536.56;5203333;28;20120;-71
2022/05/06 12:01:53;;;;;;;29.55;14.70;;;;;;;22.19;91.48;102532.28;5203422;28;20429;-71
2022/05/06 12:04:29;;;;;;;28.25;14.32;;;;;;;21.89;89.82;102536.28;5203084;28;20641;-70
2022/05/06 12:07:00;;;;;;;29.85;13.32;;;;;;;21.68;91.09;102528.97;5210548;28;20379;-71